createdAt,value
2019-04-26T00:02:24.359Z,66.07
2019-04-26T00:04:59.653Z,65.98
2019-04-26T00:07:32.817Z,66.20
2019-04-26T00:10:11.845Z,66.28
2019-04-26T00:12:52.564Z,66.20
2019-04-26T00:15:43.397Z,66.21
2019-04-26T00:18:16.770Z,66.52
2019-04-26T00:20:49.640Z,66.42
2019-04-26T00:23:22.635Z,66.29
2019-04-26T00:25:55.874Z,66.39
2019-04-26T00:28:28.943Z,66.32
2019-04-26T00:31:01.831Z,66.30
2019-04-26T00:33:34.764Z,66.32
2019-04-26T00:36:07.643Z,66.25
2019-04-26T00:38:40.560Z,66.17
2019-04-26T00:41:14.120Z,66.01
2019-04-26T00:43:47.261Z,65.97
2019-04-26T00:46:20.937Z,65.92
2019-04-26T00:48:56.000Z,66.00
2019-04-26T00:51:29.105Z,66.21
2019-04-26T00:54:02.303Z,66.28
2019-04-26T00:56:36.438Z,66.45
2019-04-26T00:59:10.344Z,66.44
2019-04-26T01:01:47.075Z,66.46
2019-04-26T01:04:20.903Z,66.50
2019-04-26T01:06:55.457Z,66.46
2019-04-26T01:09:28.395Z,66.47
2019-04-26T01:12:01.250Z,66.69
2019-04-26T01:14:34.220Z,66.90
2019-04-26T01:17:07.173Z,67.10
2019-04-26T01:19:42.747Z,67.17
2019-04-26T01:22:23.333Z,67.24
2019-04-26T01:24:57.879Z,67.41
2019-04-26T01:27:33.146Z,67.77
2019-04-26T01:30:09.700Z,67.87
2019-04-26T01:32:45.010Z,68.13
2019-04-26T01:35:18.988Z,68.41
2019-04-26T01:37:53.902Z,68.71
2019-04-26T01:40:28.519Z,68.73
2019-04-26T01:43:21.680Z,68.72
2019-04-26T01:46:04.146Z,68.80
2019-04-26T01:48:49.405Z,68.85
2019-04-26T01:51:58.710Z,68.86
2019-04-26T01:54:39.993Z,68.94
2019-04-26T01:57:14.311Z,68.81
2019-04-26T01:59:53.566Z,68.94
2019-04-26T02:02:43.686Z,69.15
2019-04-26T02:05:23.974Z,69.15
2019-04-26T02:07:57.492Z,68.88
2019-04-26T02:10:31.126Z,68.73
2019-04-26T02:13:04.043Z,68.65
2019-04-26T02:15:37.415Z,68.53
2019-04-26T02:18:10.319Z,68.35
2019-04-26T02:21:27.874Z,68.46
2019-04-26T02:24:26.611Z,68.51
2019-04-26T02:27:01.427Z,68.58
2019-04-26T02:29:34.763Z,68.52
2019-04-26T02:32:09.315Z,68.74
2019-04-26T02:34:42.226Z,68.98
2019-04-26T02:37:16.720Z,69.26
2019-04-26T02:39:50.338Z,69.50
2019-04-26T02:42:40.807Z,69.65
2019-04-26T02:46:00.519Z,69.76
2019-04-26T02:49:02.920Z,69.95
2019-04-26T02:51:41.784Z,70.31
2019-04-26T02:54:27.897Z,70.52
2019-04-26T02:57:02.938Z,70.52
2019-04-26T02:59:50.278Z,70.44
2019-04-26T03:02:30.281Z,70.52
2019-04-26T03:05:08.825Z,70.63
2019-04-26T03:08:13.445Z,70.87
2019-04-26T03:10:52.605Z,70.93
2019-04-26T03:13:51.299Z,71.08
2019-04-26T03:16:50.102Z,71.05
2019-04-26T03:19:39.659Z,71.13
2019-04-26T03:23:10.136Z,71.13
2019-04-26T03:26:38.958Z,71.08
2019-04-26T03:29:43.664Z,70.97
2019-04-26T03:33:08.778Z,70.90
2019-04-26T03:36:47.011Z,70.99
2019-04-26T03:39:37.142Z,71.03
2019-04-26T03:42:44.060Z,71.06
2019-04-26T03:45:29.206Z,71.29
2019-04-26T03:48:45.051Z,71.38
2019-04-26T03:51:35.735Z,71.66
2019-04-26T03:54:17.882Z,71.93
2019-04-26T03:57:14.929Z,72.07
2019-04-26T04:00:28.453Z,71.88
2019-04-26T04:03:30.277Z,71.90
2019-04-26T04:06:05.824Z,72.00
2019-04-26T04:09:07.845Z,71.83
2019-04-26T04:12:11.117Z,71.37
2019-04-26T04:15:09.214Z,70.88
2019-04-26T04:17:58.586Z,70.36
2019-04-26T04:21:48.026Z,69.87
2019-04-26T04:24:39.053Z,69.47
2019-04-26T04:27:30.014Z,68.87
2019-04-26T04:30:28.852Z,68.30
2019-04-26T04:33:33.409Z,67.78
2019-04-26T04:36:23.041Z,67.28
2019-04-26T04:39:22.504Z,67.03
2019-04-26T04:42:54.233Z,66.61
2019-04-26T04:46:21.996Z,66.12
2019-04-26T04:49:38.257Z,65.72
2019-04-26T04:52:38.108Z,65.30
2019-04-26T04:55:31.228Z,65.13
2019-04-26T04:58:16.728Z,64.86
2019-04-26T05:01:42.770Z,64.75
2019-04-26T05:04:32.273Z,64.73
2019-04-26T05:07:43.937Z,64.44
2019-04-26T05:10:38.635Z,64.35
2019-04-26T05:13:34.768Z,64.10
2019-04-26T05:16:54.597Z,64.45
2019-04-26T05:20:15.163Z,63.61
2019-04-26T05:24:39.970Z,63.23
2019-04-26T05:27:50.898Z,63.11
2019-04-26T05:31:09.198Z,63.06
2019-04-26T05:34:14.621Z,63.05
2019-04-26T05:37:44.926Z,63.07
2019-04-26T05:40:59.888Z,63.13
2019-04-26T05:44:22.773Z,63.20
2019-04-26T05:48:05.262Z,63.29
2019-04-26T05:51:51.956Z,63.36
2019-04-26T05:55:02.658Z,63.33
2019-04-26T05:58:12.460Z,63.39
2019-04-26T06:01:39.046Z,63.37
2019-04-26T06:04:52.354Z,63.02
2019-04-26T06:08:31.486Z,62.80
2019-04-26T06:11:12.156Z,62.13
2019-04-26T06:14:51.429Z,61.73
2019-04-26T06:18:12.111Z,61.21
2019-04-26T06:21:02.169Z,58.26
2019-04-26T06:24:13.739Z,57.15
2019-04-26T06:27:49.340Z,56.06
2019-04-26T06:30:57.920Z,54.30
2019-04-26T06:33:48.460Z,53.38
2019-04-26T06:36:44.087Z,52.55
2019-04-26T06:39:42.602Z,51.46
2019-04-26T06:43:10.453Z,50.97
2019-04-26T06:46:40.661Z,49.80
2019-04-26T06:49:58.613Z,48.32
2019-04-26T06:52:35.534Z,47.51
2019-04-26T06:55:35.741Z,46.91
2019-04-26T06:59:36.803Z,46.14
2019-04-26T07:02:40.618Z,45.36
2019-04-26T07:05:25.250Z,44.42
2019-04-26T07:08:38.486Z,44.12
2019-04-26T07:12:13.616Z,43.24
2019-04-26T07:15:52.359Z,42.79
2019-04-26T07:18:53.981Z,41.72
2019-04-26T07:22:20.929Z,41.17
2019-04-26T07:26:05.913Z,40.22
2019-04-26T07:29:34.796Z,39.05
2019-04-26T07:32:37.000Z,38.42
2019-04-26T07:35:27.013Z,37.68
2019-04-26T07:39:16.681Z,37.90
2019-04-26T07:42:36.507Z,36.64
2019-04-26T07:46:03.959Z,36.00
2019-04-26T07:49:46.613Z,36.62
2019-04-26T07:53:17.965Z,35.03
2019-04-26T07:56:34.549Z,34.73
2019-04-26T08:00:04.256Z,34.73
2019-04-26T08:03:00.747Z,33.91
2019-04-26T08:05:57.833Z,33.35
2019-04-26T08:08:56.735Z,32.11
2019-04-26T08:11:44.542Z,31.89
2019-04-26T08:14:42.443Z,32.17
2019-04-26T08:17:44.143Z,31.63
2019-04-26T08:20:53.158Z,31.33
2019-04-26T08:23:41.310Z,31.25
2019-04-26T08:26:17.109Z,30.39
2019-04-26T08:28:56.591Z,30.21
2019-04-26T08:31:31.755Z,30.42
2019-04-26T08:34:10.103Z,29.41
2019-04-26T08:36:51.936Z,29.55
2019-04-26T08:39:44.545Z,29.56
2019-04-26T08:42:11.898Z,29.47
2019-04-26T08:44:57.817Z,29.69
2019-04-26T08:47:51.217Z,29.63
2019-04-26T08:50:31.935Z,28.53
2019-04-26T08:53:06.635Z,28.30
2019-04-26T08:55:42.770Z,27.91
2019-04-26T08:58:19.494Z,27.51
2019-04-26T09:01:04.920Z,27.70
2019-04-26T09:03:55.059Z,27.08
2019-04-26T09:06:54.824Z,27.01
2019-04-26T09:09:32.359Z,26.18
2019-04-26T09:12:22.270Z,26.67
2019-04-26T09:14:52.285Z,26.87
2019-04-26T09:17:27.667Z,26.71
2019-04-26T09:20:06.960Z,27.46
2019-04-26T09:22:56.676Z,26.91
2019-04-26T09:25:34.480Z,26.75
2019-04-26T09:28:26.872Z,26.56
2019-04-26T09:31:23.075Z,26.50
2019-04-26T09:34:01.040Z,26.09
2019-04-26T09:36:34.285Z,25.71
2019-04-26T09:39:10.257Z,26.14
2019-04-26T09:41:43.280Z,26.64
2019-04-26T09:44:33.909Z,26.60
2019-04-26T09:47:28.999Z,26.76
2019-04-26T09:50:29.546Z,26.16
2019-04-26T09:53:02.534Z,26.46
2019-04-26T09:55:35.968Z,25.95
2019-04-26T09:58:09.267Z,26.39
2019-04-26T10:00:43.986Z,26.35
2019-04-26T10:03:17.018Z,26.46
2019-04-26T10:05:52.045Z,26.98
2019-04-26T10:08:24.556Z,27.05
2019-04-26T10:10:58.544Z,26.80
2019-04-26T10:13:56.354Z,26.33
2019-04-26T10:16:50.703Z,27.27
2019-04-26T10:19:34.376Z,27.45
2019-04-26T10:22:07.547Z,26.42
2019-04-26T10:24:40.449Z,27.32
2019-04-26T10:27:13.300Z,25.95
2019-04-26T10:29:46.181Z,26.48
2019-04-26T10:32:21.652Z,26.87
2019-04-26T10:34:53.852Z,25.80
2019-04-26T10:37:38.917Z,26.42
2019-04-26T10:40:02.602Z,26.15
2019-04-26T10:42:37.272Z,26.59
2019-04-26T10:45:14.647Z,27.19
2019-04-26T10:47:46.669Z,26.87
2019-04-26T10:50:20.094Z,27.83
2019-04-26T10:52:59.563Z,26.84
2019-04-26T10:56:03.246Z,26.16
2019-04-26T10:58:43.603Z,26.53
2019-04-26T11:01:18.108Z,26.57
2019-04-26T11:03:51.222Z,26.51
2019-04-26T11:06:27.835Z,26.71
2019-04-26T11:09:00.275Z,26.24
2019-04-26T11:11:35.239Z,27.22
2019-04-26T11:14:08.422Z,27.15
2019-04-26T11:16:42.270Z,26.18
2019-04-26T11:19:16.325Z,28.10
2019-04-26T11:21:51.064Z,26.08
2019-04-26T11:24:23.990Z,26.79
2019-04-26T11:26:56.909Z,26.04
2019-04-26T11:29:30.221Z,25.49
2019-04-26T11:32:08.006Z,24.30
2019-04-26T11:34:42.917Z,25.14
2019-04-26T11:37:17.921Z,26.86
2019-04-26T11:39:50.438Z,25.76
2019-04-26T11:42:23.413Z,26.09
2019-04-26T11:45:05.758Z,26.11
2019-04-26T11:47:32.128Z,26.77
2019-04-26T11:50:05.254Z,27.43
2019-04-26T11:52:38.501Z,25.93
2019-04-26T11:55:14.797Z,26.04
2019-04-26T11:57:47.530Z,25.14
2019-04-26T12:00:29.478Z,25.58
2019-04-26T12:03:02.426Z,24.92
2019-04-26T12:05:54.036Z,25.23
2019-04-26T12:08:45.859Z,25.17
2019-04-26T12:11:25.790Z,25.31
2019-04-26T12:13:55.332Z,25.91
2019-04-26T12:16:28.431Z,24.89
2019-04-26T12:19:01.459Z,24.67
2019-04-26T12:21:35.103Z,26.10
2019-04-26T12:24:08.419Z,23.60
2019-04-26T12:26:42.979Z,23.62
2019-04-26T12:29:16.145Z,23.58
2019-04-26T12:31:51.559Z,22.09
2019-04-26T12:34:24.697Z,23.61
2019-04-26T12:36:57.739Z,24.14
2019-04-26T12:39:32.321Z,24.65
2019-04-26T12:42:08.277Z,23.89
2019-04-26T12:44:49.826Z,23.36
2019-04-26T12:47:48.671Z,23.99
2019-04-26T12:50:23.028Z,23.62
2019-04-26T12:52:57.401Z,22.99
2019-04-26T12:55:30.795Z,23.23
2019-04-26T12:58:04.346Z,22.73
2019-04-26T13:00:38.813Z,24.40
2019-04-26T13:03:20.053Z,22.03
2019-04-26T13:05:49.710Z,22.75
2019-04-26T13:08:21.546Z,23.12
2019-04-26T13:11:15.405Z,22.69
2019-04-26T13:13:54.051Z,25.52
2019-04-26T13:16:57.214Z,23.92
2019-04-26T13:19:29.495Z,24.06
2019-04-26T13:22:02.593Z,23.30
2019-04-26T13:24:39.472Z,23.42
2019-04-26T13:27:11.000Z,23.50
2019-04-26T13:29:44.759Z,24.58
2019-04-26T13:32:20.647Z,24.15
2019-04-26T13:34:53.720Z,23.61
2019-04-26T13:37:26.821Z,23.24
2019-04-26T13:39:59.807Z,23.36
2019-04-26T13:42:32.744Z,26.34
2019-04-26T13:45:31.268Z,23.77
2019-04-26T13:48:29.563Z,24.83
2019-04-26T13:51:07.868Z,25.29
2019-04-26T13:53:42.179Z,24.72
2019-04-26T13:56:17.338Z,26.44
2019-04-26T13:58:54.235Z,26.69
2019-04-26T14:01:26.518Z,24.33
2019-04-26T14:04:02.441Z,26.48
2019-04-26T14:06:40.686Z,24.20
2019-04-26T14:09:14.070Z,25.00
2019-04-26T14:11:51.022Z,25.51
2019-04-26T14:14:24.259Z,24.45
2019-04-26T14:16:57.331Z,24.64
2019-04-26T14:19:30.562Z,24.37
2019-04-26T14:22:07.052Z,24.55
2019-04-26T14:24:58.684Z,24.43
2019-04-26T14:27:50.043Z,24.58
2019-04-26T14:30:22.298Z,25.44
2019-04-26T14:32:57.258Z,26.51
2019-04-26T14:35:30.932Z,24.87
2019-04-26T14:38:04.184Z,24.92
2019-04-26T14:40:39.262Z,25.78
2019-04-26T14:43:12.314Z,24.59
2019-04-26T14:45:55.630Z,24.85
2019-04-26T14:48:29.330Z,24.82
2019-04-26T14:51:07.221Z,25.32
2019-04-26T14:53:32.212Z,24.99
2019-04-26T14:56:05.314Z,25.06
2019-04-26T14:58:39.314Z,25.03
2019-04-26T15:01:17.934Z,25.49
2019-04-26T15:04:09.610Z,25.01
2019-04-26T15:06:44.661Z,24.47
2019-04-26T15:09:20.106Z,24.49
2019-04-26T15:11:57.796Z,24.71
2019-04-26T15:14:29.082Z,25.06
2019-04-26T15:17:02.740Z,24.72
2019-04-26T15:19:35.706Z,24.98
2019-04-26T15:22:10.499Z,25.36
2019-04-26T15:24:43.363Z,24.57
2019-04-26T15:27:16.228Z,25.27
2019-04-26T15:29:49.072Z,24.94
2019-04-26T15:32:23.982Z,25.10
2019-04-26T15:34:58.564Z,25.04
2019-04-26T15:37:32.228Z,25.25
2019-04-26T15:40:16.563Z,25.25
2019-04-26T15:43:02.906Z,26.68
2019-04-26T15:45:56.296Z,27.29
2019-04-26T15:48:50.324Z,25.87
2019-04-26T15:51:27.437Z,25.55
2019-04-26T15:53:59.951Z,25.96
2019-04-26T15:56:32.881Z,26.87
2019-04-26T15:59:05.808Z,25.55
2019-04-26T16:01:41.890Z,25.71
2019-04-26T16:04:16.936Z,26.47
2019-04-26T16:06:47.988Z,25.47
2019-04-26T16:09:22.817Z,25.83
2019-04-26T16:11:56.573Z,25.63
2019-04-26T16:14:31.074Z,26.01
2019-04-26T16:17:06.615Z,26.57
2019-04-26T16:19:39.244Z,26.13
2019-04-26T16:22:12.319Z,26.22
2019-04-26T16:24:46.153Z,26.41
2019-04-26T16:27:19.142Z,27.21
2019-04-26T16:30:03.052Z,26.74
2019-04-26T16:32:47.404Z,27.28
2019-04-26T16:35:25.112Z,27.02
2019-04-26T16:37:59.826Z,27.40
2019-04-26T16:40:30.105Z,28.22
2019-04-26T16:43:04.211Z,28.23
2019-04-26T16:45:41.209Z,28.01
2019-04-26T16:48:12.910Z,28.32
2019-04-26T16:50:46.692Z,28.47
2019-04-26T16:53:37.762Z,28.77
2019-04-26T16:55:54.629Z,28.90
2019-04-26T16:58:30.898Z,28.86
2019-04-26T17:01:04.573Z,29.41
2019-04-26T17:03:43.952Z,29.75
2019-04-26T17:06:14.278Z,29.38
2019-04-26T17:08:49.891Z,29.43
2019-04-26T17:11:22.965Z,30.28
2019-04-26T17:13:57.011Z,29.80
2019-04-26T17:16:34.709Z,29.94
2019-04-26T17:19:05.784Z,29.91
2019-04-26T17:21:45.275Z,30.32
2019-04-26T17:24:46.247Z,30.30
2019-04-26T17:27:18.598Z,30.49
2019-04-26T17:29:52.795Z,30.57
2019-04-26T17:32:26.339Z,31.45
2019-04-26T17:35:03.585Z,30.99
2019-04-26T17:37:34.204Z,31.02
2019-04-26T17:40:07.610Z,31.26
2019-04-26T17:42:41.031Z,31.26
2019-04-26T17:45:14.308Z,31.41
2019-04-26T17:47:47.556Z,31.46
2019-04-26T17:50:20.795Z,31.83
2019-04-26T17:52:53.799Z,31.84
2019-04-26T17:55:31.153Z,31.94
2019-04-26T17:58:12.460Z,32.14
2019-04-26T18:00:45.695Z,32.27
2019-04-26T18:03:18.040Z,32.41
2019-04-26T18:05:57.193Z,32.73
2019-04-26T18:08:41.161Z,32.91
2019-04-26T18:11:01.171Z,33.11
2019-04-26T18:13:35.839Z,33.36
2019-04-26T18:16:08.974Z,33.55
2019-04-26T18:19:08.149Z,33.61
2019-04-26T18:22:05.990Z,33.88
2019-04-26T18:24:39.248Z,34.38
2019-04-26T18:27:12.409Z,35.12
2019-04-26T18:29:45.559Z,35.69
2019-04-26T18:32:18.771Z,36.20
2019-04-26T18:34:53.502Z,36.81
2019-04-26T18:37:30.334Z,37.22
2019-04-26T18:40:06.203Z,37.51
2019-04-26T18:42:44.595Z,37.95
2019-04-26T18:45:25.817Z,38.24
2019-04-26T18:47:56.315Z,38.29
2019-04-26T18:50:28.539Z,38.44
2019-04-26T18:53:30.555Z,38.61
2019-04-26T18:56:04.312Z,38.46
2019-04-26T18:58:38.446Z,39.17
2019-04-26T19:01:13.699Z,39.47
2019-04-26T19:03:49.306Z,39.75
2019-04-26T19:06:30.992Z,40.40
2019-04-26T19:08:57.579Z,40.63
2019-04-26T19:11:32.401Z,40.50
2019-04-26T19:14:23.749Z,40.68
2019-04-26T19:17:15.066Z,41.02
2019-04-26T19:19:58.505Z,41.21
2019-04-26T19:22:32.227Z,41.18
2019-04-26T19:25:18.956Z,41.74
2019-04-26T19:27:49.611Z,41.61
2019-04-26T19:30:19.193Z,41.95
2019-04-26T19:32:53.932Z,41.36
2019-04-26T19:35:27.271Z,41.49
2019-04-26T19:38:00.258Z,41.62
2019-04-26T19:40:34.340Z,41.69
2019-04-26T19:43:09.405Z,41.69
2019-04-26T19:46:09.534Z,41.82
2019-04-26T19:49:00.408Z,42.07
2019-04-26T19:51:56.694Z,42.34
2019-04-26T19:54:41.816Z,42.44
2019-04-26T19:57:24.451Z,42.67
2019-04-26T19:59:57.511Z,42.89
2019-04-26T20:02:35.889Z,42.89
2019-04-26T20:05:06.670Z,43.16
2019-04-26T20:07:41.699Z,43.23
2019-04-26T20:10:15.307Z,43.36
2019-04-26T20:12:48.554Z,43.18
2019-04-26T20:15:26.526Z,43.09
2019-04-26T20:18:00.198Z,43.34
2019-04-26T20:20:35.878Z,43.48
2019-04-26T20:23:08.030Z,43.51
2019-04-26T20:25:41.621Z,43.20
2019-04-26T20:28:14.745Z,43.59
2019-04-26T20:31:18.852Z,43.80
2019-04-26T20:33:53.178Z,43.50
2019-04-26T20:36:26.477Z,43.51
2019-04-26T20:39:01.418Z,43.91
2019-04-26T20:41:36.078Z,44.37
2019-04-26T20:44:10.104Z,44.47
2019-04-26T20:46:43.499Z,44.42
2019-04-26T20:49:19.182Z,44.49
2019-04-26T20:51:53.149Z,44.74
2019-04-26T20:54:26.649Z,44.93
2019-04-26T20:56:59.718Z,44.40
2019-04-26T20:59:32.938Z,44.73
2019-04-26T21:02:07.978Z,44.74
2019-04-26T21:04:44.253Z,45.12
2019-04-26T21:07:16.481Z,45.03
2019-04-26T21:09:49.635Z,44.83
2019-04-26T21:12:23.203Z,45.62
2019-04-26T21:14:56.478Z,45.84
2019-04-26T21:17:29.581Z,45.91
2019-04-26T21:20:02.940Z,45.92
2019-04-26T21:22:36.201Z,46.31
2019-04-26T21:25:38.357Z,45.66
2019-04-26T21:28:33.030Z,45.19
2019-04-26T21:31:15.427Z,45.23
2019-04-26T21:34:12.509Z,45.10
2019-04-26T21:37:11.412Z,44.92
2019-04-26T21:40:10.362Z,44.85
2019-04-26T21:42:45.295Z,44.69
2019-04-26T21:45:21.662Z,45.96
2019-04-26T21:47:54.291Z,44.85
2019-04-26T21:50:29.174Z,43.95
2019-04-26T21:53:05.065Z,43.79
2019-04-26T21:55:38.658Z,43.59
2019-04-26T21:58:11.082Z,43.50
2019-04-26T22:01:00.329Z,43.34
2019-04-26T22:03:34.194Z,43.16
2019-04-26T22:06:07.250Z,42.97
2019-04-26T22:08:48.754Z,43.22
2019-04-26T22:11:23.255Z,43.99
2019-04-26T22:14:21.276Z,44.30
2019-04-26T22:17:13.557Z,44.44
2019-04-26T22:20:06.641Z,44.35
2019-04-26T22:22:49.726Z,44.62
2019-04-26T22:25:25.449Z,45.00
2019-04-26T22:28:00.473Z,45.52
2019-04-26T22:30:33.192Z,45.48
2019-04-26T22:33:06.223Z,45.35
2019-04-26T22:35:39.152Z,45.74
2019-04-26T22:38:12.208Z,46.43
2019-04-26T22:40:48.615Z,48.64
2019-04-26T22:43:29.677Z,48.34
2019-04-26T22:46:28.866Z,48.61
2019-04-26T22:49:01.314Z,49.16
2019-04-26T22:51:37.237Z,49.63
2019-04-26T22:54:08.381Z,50.34
2019-04-26T22:56:41.206Z,50.62
2019-04-26T22:59:14.160Z,50.84
2019-04-26T23:01:48.758Z,51.82
2019-04-26T23:04:25.322Z,52.18
2019-04-26T23:06:56.903Z,52.29
2019-04-26T23:09:30.940Z,52.50
2019-04-26T23:12:24.781Z,52.75
2019-04-26T23:15:30.198Z,52.98
2019-04-26T23:18:16.838Z,53.43
2019-04-26T23:20:53.780Z,53.68
2019-04-26T23:23:26.890Z,54.04
2019-04-26T23:26:02.260Z,54.43
2019-04-26T23:28:36.990Z,55.00
2019-04-26T23:31:09.286Z,55.38
2019-04-26T23:33:42.931Z,56.13
2019-04-26T23:36:18.362Z,57.08
2019-04-26T23:38:50.397Z,57.97
2019-04-26T23:41:23.688Z,58.99
2019-04-26T23:44:02.931Z,59.67
2019-04-26T23:46:33.013Z,60.40
2019-04-26T23:49:06.150Z,61.03
2019-04-26T23:51:43.051Z,61.41
2019-04-26T23:54:13.775Z,61.91
2019-04-26T23:56:47.735Z,62.25
2019-04-26T23:59:21.157Z,62.80
